Time;durP1;ratioP1;P1;durP2;ratioP2;P2;SDS_P1;SDS_P2;PMS_P1;PMS_P2;Temp;Humidity;BMP_temperature;BMP_pressure;BME280_temperature;BME280_humidity;BME280_pressure;Samples;Min_cycle;Max_cycle;Signal;HPM_P1;HPM_P2
2023/03/09 00:01:34;;;;;;;6.97;2.90;;;9.30;99.90;;;8.35;100.00;94945.69;4916117;29;20434;-74
2023/03/09 00:04:01;;;;;;;12.40;4.00;;;9.30;99.90;;;8.37;100.00;94930.38;4916278;29;20428;-74
2023/03/09 00:06:28;;;;;;;12.73;3.43;;;9.30;99.90;;;8.43;100.00;94933.66;4916276;29;20866;-74
2023/03/09 00:08:54;;;;;;;10.48;3.30;;;9.30;99.90;;;8.40;100.00;94931.66;4916368;29;20760;-73
2023/03/09 00:11:21;;;;;;;10.35;3.40;;;9.30;99.90;;;8.42;100.00;94945.31;4915908;29;20417;-74
2023/03/09 00:13:49;;;;;;;14.40;3.97;;;9.30;99.90;;;8.49;100.00;94969.41;4916000;29;20436;-73
2023/03/09 00:16:17;;;;;;;11.45;3.30;;;9.40;99.90;;;8.55;100.00;94968.22;4915839;29;20426;-75
2023/03/09 00:18:44;;;;;;;7.68;3.28;;;9.50;99.90;;;8.51;100.00;94983.84;4914765;29;20464;-74
2023/03/09 00:21:34;;;;;;;11.45;3.33;;;9.40;99.90;;;8.49;100.00;94993.91;4915905;29;20913;-74
2023/03/09 00:24:00;;;;;;;8.07;2.78;;;9.40;99.90;;;8.56;100.00;95016.47;4915952;29;20444;-73
2023/03/09 00:26:28;;;;;;;6.80;2.97;;;9.50;99.90;;;8.71;100.00;95016.16;4915856;29;20955;-74
2023/03/09 00:28:54;;;;;;;5.10;2.50;;;9.60;99.90;;;8.61;100.00;95035.59;4915809;29;20449;-75
2023/03/09 00:31:20;;;;;;;8.98;2.47;;;9.50;99.90;;;8.57;100.00;95026.69;4915610;29;21527;-76
2023/03/09 00:33:47;;;;;;;7.85;2.40;;;9.50;99.90;;;8.51;100.00;95017.34;4915626;29;20405;-75
2023/03/09 00:36:13;;;;;;;4.90;2.40;;;9.40;99.90;;;8.70;100.00;95040.94;4915599;29;20469;-74
2023/03/09 00:38:39;;;;;;;8.15;2.35;;;9.50;99.90;;;8.62;100.00;95045.06;4915590;29;20928;-74
2023/03/09 00:41:05;;;;;;;5.57;2.15;;;9.50;99.90;;;8.64;100.00;95050.06;4915573;29;20425;-74
2023/03/09 00:43:32;;;;;;;4.72;2.25;;;9.60;99.90;;;8.71;100.00;95063.63;4914697;29;20508;-75
2023/03/09 00:45:58;;;;;;;8.27;2.10;;;9.60;99.90;;;8.62;100.00;95066.16;4915355;29;20410;-75
2023/03/09 00:48:25;;;;;;;5.60;2.35;;;9.60;99.90;;;8.58;100.00;95070.44;4915357;29;20424;-75
2023/03/09 00:50:51;;;;;;;3.97;1.98;;;9.50;99.90;;;8.57;100.00;95063.59;4915507;29;20532;-75
2023/03/09 00:53:17;;;;;;;5.63;1.77;;;9.50;99.90;;;8.61;100.00;95056.69;4915097;29;20429;-75
2023/03/09 00:55:43;;;;;;;3.63;1.67;;;9.50;99.90;;;8.54;100.00;95051.81;4915087;29;20462;-74
2023/03/09 00:58:10;;;;;;;7.05;1.90;;;9.50;99.90;;;8.48;100.00;95054.84;4915291;29;20413;-74
2023/03/09 01:00:38;;;;;;;4.10;1.80;;;9.30;99.90;;;8.43;100.00;95065.47;4915248;29;20417;-74
2023/03/09 01:03:04;;;;;;;3.17;1.50;;;9.30;99.90;;;8.32;100.00;95074.66;4914836;29;20468;-74
2023/03/09 01:05:30;;;;;;;3.13;1.38;;;9.30;99.90;;;8.40;100.00;95074.78;4915184;29;20504;-74
2023/03/09 01:07:56;;;;;;;2.00;1.20;;;9.30;99.90;;;8.36;100.00;95080.91;4915130;29;20409;-74
2023/03/09 01:10:22;;;;;;;1.95;1.33;;;9.30;99.90;;;8.26;100.00;95089.78;4915107;29;20432;-74
2023/03/09 01:12:48;;;;;;;3.33;1.40;;;9.20;99.90;;;8.16;100.00;95080.19;4913555;29;20424;-75
2023/03/09 01:15:14;;;;;;;2.22;1.20;;;9.10;99.90;;;8.12;100.00;95094.22;4914668;29;20946;-74
2023/03/09 01:17:42;;;;;;;4.13;1.35;;;9.10;99.90;;;8.06;100.00;95064.56;4914999;29;20428;-74
2023/03/09 01:20:10;;;;;;;2.85;1.50;;;9.00;99.90;;;7.94;100.00;95056.34;4914983;29;20445;-74
2023/03/09 01:22:36;;;;;;;4.28;1.38;;;8.90;99.90;;;7.82;100.00;95045.50;4914464;29;20416;-74
2023/03/09 01:25:03;;;;;;;2.63;1.20;;;8.80;99.90;;;7.80;100.00;95050.28;4914854;29;20764;-74
2023/03/09 01:27:29;;;;;;;2.03;1.20;;;8.80;99.90;;;7.76;100.00;95050.06;4914921;29;20410;-74
2023/03/09 01:29:54;;;;;;;1.25;1.10;;;8.70;99.90;;;7.77;100.00;95061.41;4914836;29;20413;-74
2023/03/09 01:32:20;;;;;;;2.80;1.20;;;8.70;99.90;;;7.78;100.00;95071.66;4914417;29;20413;-74
2023/03/09 01:34:48;;;;;;;4.05;1.52;;;8.70;99.90;;;7.75;100.00;95064.31;4914613;29;20556;-73
2023/03/09 01:37:14;;;;;;;2.80;1.30;;;8.70;99.90;;;7.75;100.00;95084.59;4914673;29;20409;-74
2023/03/09 01:39:39;;;;;;;1.98;1.20;;;8.70;99.90;;;7.67;100.00;95083.41;4914707;29;20417;-74
2023/03/09 01:42:06;;;;;;;3.17;1.30;;;8.60;99.90;;;7.67;100.00;95090.53;4914431;29;20456;-74
2023/03/09 01:44:31;;;;;;;2.30;1.20;;;8.60;99.90;;;7.64;100.00;95077.94;4914669;29;20505;-74
2023/03/09 01:46:57;;;;;;;3.85;1.38;;;8.60;99.90;;;7.63;100.00;95079.81;4914493;29;20492;-74
2023/03/09 01:49:33;;;;;;;1.65;1.23;;;8.60;99.90;;;7.62;100.00;95072.97;4914583;29;20413;-74
2023/03/09 01:52:09;;;;;;;2.65;1.38;;;8.60;99.90;;;7.52;100.00;95067.84;4914337;29;20409;-73
2023/03/09 01:54:42;;;;;;;3.03;1.25;;;8.50;99.90;;;7.56;100.00;95075.97;4914399;29;20414;-73
2023/03/09 01:57:15;;;;;;;3.72;1.40;;;8.50;99.90;;;7.52;100.00;95083.66;4914468;29;20445;-74
2023/03/09 01:59:44;;;;;;;2.97;1.30;;;8.50;99.90;;;7.46;100.00;95105.06;4914378;29;20428;-73
2023/03/09 02:02:12;;;;;;;5.32;1.33;;;8.40;99.90;;;7.59;100.00;95099.84;4914106;29;20420;-73
2023/03/09 02:04:45;;;;;;;3.20;1.30;;;8.50;99.90;;;7.54;100.00;95078.09;4914289;29;20469;-73
2023/03/09 02:07:16;;;;;;;3.50;1.23;;;8.50;99.90;;;7.57;100.00;95067.78;4914380;29;20409;-74
2023/03/09 02:09:47;;;;;;;5.03;1.40;;;8.50;99.90;;;7.60;100.00;95066.41;4914371;29;20417;-73
2023/03/09 02:12:22;;;;;;;2.25;1.30;;;8.50;99.90;;;7.62;100.00;95059.81;4913992;29;20413;-74
2023/03/09 02:14:48;;;;;;;1.80;1.10;;;8.60;99.90;;;7.66;100.00;95050.28;4914059;29;20772;-74
2023/03/09 02:17:16;;;;;;;2.78;1.40;;;8.60;99.90;;;7.54;100.00;95057.03;4914137;29;20895;-74
2023/03/09 02:20:08;;;;;;;1.83;1.10;;;8.50;99.90;;;7.49;100.00;95055.28;4914239;29;20405;-73
2023/03/09 02:22:38;;;;;;;1.42;1.00;;;8.40;99.90;;;7.36;100.00;95066.56;4913887;29;20417;-74
2023/03/09 02:25:16;;;;;;;1.80;1.20;;;8.30;99.90;;;7.31;100.00;95059.50;4914141;29;20914;-73
2023/03/09 02:27:45;;;;;;;1.30;1.20;;;8.20;99.90;;;7.27;100.00;95060.38;4914139;29;20469;-73
2023/03/09 02:30:12;;;;;;;1.30;1.20;;;8.20;99.90;;;7.13;100.00;95060.31;4914149;29;20418;-74
2023/03/09 02:32:38;;;;;;;2.53;1.33;;;8.10;99.90;;;7.24;100.00;95069.63;4913857;29;20437;-73
2023/03/09 02:35:09;;;;;;;1.70;1.40;;;8.20;99.90;;;7.20;100.00;95054.69;4913918;29;20484;-73
2023/03/09 02:37:39;;;;;;;3.33;1.75;;;8.10;99.90;;;7.13;100.00;95054.28;4914088;29;20425;-73
2023/03/09 02:40:12;;;;;;;2.30;1.40;;;8.10;99.90;;;7.06;100.00;95049.38;4914074;29;20412;-72
2023/03/09 02:42:39;;;;;;;1.60;1.20;;;8.00;99.90;;;7.11;100.00;95040.63;4913695;29;20425;-72
2023/03/09 02:45:09;;;;;;;1.55;1.30;;;8.10;99.90;;;7.06;100.00;95044.13;4913824;29;20899;-73
2023/03/09 02:47:36;;;;;;;1.90;1.40;;;8.10;99.90;;;7.16;100.00;95051.06;4913828;29;20435;-73
2023/03/09 02:50:02;;;;;;;2.20;1.17;;;8.10;99.90;;;7.09;100.00;95066.41;4913947;29;20780;-73
2023/03/09 02:52:28;;;;;;;1.67;1.20;;;8.10;99.90;;;7.17;100.00;95074.47;4913750;29;20824;-73
2023/03/09 02:54:54;;;;;;;1.30;1.20;;;8.10;99.90;;;7.14;100.00;95076.91;4913775;29;20421;-72
2023/03/09 02:57:20;;;;;;;1.77;1.25;;;8.10;99.90;;;7.35;100.00;95102.63;4913847;29;20404;-73
2023/03/09 02:59:45;;;;;;;3.45;1.42;;;8.20;99.90;;;7.46;100.00;95110.34;4912628;29;20500;-72
2023/03/09 03:02:13;;;;;;;2.50;1.20;;;8.30;99.90;;;7.51;100.00;95118.19;4913594;29;20455;-72
2023/03/09 03:04:39;;;;;;;2.75;1.30;;;8.50;99.90;;;7.51;100.00;95118.19;4913833;29;20476;-73
2023/03/09 03:07:05;;;;;;;2.60;1.33;;;8.40;99.90;;;7.49;100.00;95120.31;4915032;29;20405;-73
2023/03/09 03:09:31;;;;;;;2.72;1.27;;;8.40;99.90;;;7.39;100.00;95144.91;4917470;29;20457;-73
2023/03/09 03:11:57;;;;;;;2.47;1.27;;;8.40;99.90;;;7.31;100.00;95161.34;4915753;29;20511;-73
2023/03/09 03:14:23;;;;;;;1.50;1.30;;;8.30;99.90;;;7.46;100.00;95176.94;4917294;29;20426;-74
2023/03/09 03:16:49;;;;;;;2.58;1.40;;;8.40;99.90;;;7.47;100.00;95188.25;4943985;23;20889;-78
2023/03/09 03:19:16;;;;;;;3.05;1.15;;;8.50;99.90;;;7.41;100.00;95200.69;4936081;29;20439;-78
2023/03/09 03:21:42;;;;;;;1.92;1.20;;;8.40;99.90;;;7.47;100.00;95217.97;4934370;29;20415;-77
2023/03/09 03:24:08;;;;;;;1.65;1.30;;;8.40;99.90;;;7.43;100.00;95229.38;4936077;29;20417;-77
2023/03/09 03:26:33;;;;;;;5.63;1.42;;;8.40;99.90;;;7.42;100.00;95231.22;4923211;29;20768;-78
2023/03/09 03:28:59;;;;;;;2.40;1.30;;;8.40;99.90;;;7.37;100.00;95261.00;4916911;29;20476;-79
2023/03/09 03:31:25;;;;;;;2.60;1.20;;;8.40;99.90;;;7.33;100.00;95280.28;4916673;29;20413;-78
2023/03/09 03:33:51;;;;;;;1.98;1.20;;;8.30;99.90;;;7.31;100.00;95282.41;4916952;29;20420;-78
2023/03/09 03:36:18;;;;;;;2.00;1.20;;;8.30;99.90;;;7.42;100.00;95285.72;4916681;29;20459;-80
2023/03/09 03:38:44;;;;;;;2.38;1.10;;;8.40;99.90;;;7.51;100.00;95261.13;4916825;29;20435;-80
2023/03/09 03:41:10;;;;;;;2.00;1.00;;;8.40;99.90;;;7.36;100.00;95277.09;4916803;29;20880;-78
2023/03/09 03:43:36;;;;;;;5.65;1.10;;;8.40;99.90;;;7.37;100.00;95276.78;4916584;29;20413;-80
2023/03/09 03:46:02;;;;;;;5.60;1.37;;;8.30;99.90;;;7.43;100.00;95268.84;4916485;29;20795;-80
2023/03/09 03:48:28;;;;;;;3.25;1.10;;;8.40;99.90;;;7.27;100.00;95281.41;4916627;29;20413;-79
2023/03/09 03:50:54;;;;;;;3.08;1.20;;;8.30;99.90;;;7.27;100.00;95282.19;4916592;29;20502;-79
2023/03/09 03:53:21;;;;;;;1.50;1.10;;;8.30;99.90;;;7.25;100.00;95283.53;4916258;29;20413;-79
2023/03/09 03:55:47;;;;;;;2.83;1.30;;;8.20;99.90;;;7.11;100.00;95298.44;4916379;29;20790;-80
2023/03/09 03:58:13;;;;;;;4.20;1.50;;;8.10;99.90;;;7.04;100.00;95305.88;4916419;29;20413;-80
2023/03/09 04:00:39;;;;;;;5.63;1.77;;;8.00;99.90;;;7.07;100.00;95313.97;4916271;29;20420;-78
2023/03/09 04:03:06;;;;;;;6.55;1.80;;;8.00;99.90;;;7.15;100.00;95304.69;4916003;29;20916;-77
2023/03/09 04:05:32;;;;;;;8.70;2.10;;;8.10;99.90;;;7.21;100.00;95300.97;4916134;29;20409;-77
2023/03/09 04:07:58;;;;;;;8.63;1.73;;;8.10;99.90;;;7.23;100.00;95307.50;4916115;29;20500;-79
2023/03/09 04:10:25;;;;;;;10.83;2.27;;;8.20;99.90;;;7.21;100.00;95312.28;4916165;29;20560;-79
2023/03/09 04:12:52;;;;;;;10.38;2.17;;;8.10;99.90;;;7.20;100.00;95329.13;4915829;29;20783;-79
2023/03/09 04:15:18;;;;;;;10.98;2.15;;;8.20;99.90;;;7.24;100.00;95324.06;4915811;29;20425;-80
2023/03/09 04:17:43;;;;;;;8.80;2.10;;;8.20;99.90;;;7.23;100.00;95333.78;4915694;29;20409;-79
2023/03/09 04:20:11;;;;;;;11.67;2.60;;;8.20;99.90;;;7.18;100.00;95335.72;4915485;29;20840;-78
2023/03/09 04:22:37;;;;;;;18.38;3.17;;;8.10;99.90;;;7.07;100.00;95347.41;4914328;29;20421;-79
2023/03/09 04:25:03;;;;;;;16.33;2.90;;;8.00;99.90;;;7.07;100.00;95355.31;4915767;29;21069;-79
2023/03/09 04:27:30;;;;;;;22.05;2.70;;;8.00;99.90;;;7.05;100.00;95363.47;4915798;29;20417;-79
2023/03/09 04:29:56;;;;;;;12.52;2.40;;;8.00;99.90;;;7.18;100.00;95364.66;4930916;29;20495;-80
2023/03/09 04:32:22;;;;;;;13.32;2.80;;;8.20;99.90;;;7.09;100.00;95379.47;4934480;29;20419;-78
2023/03/09 04:34:48;;;;;;;16.43;2.73;;;8.10;99.90;;;7.18;100.00;95383.06;4934832;29;20414;-77
2023/03/09 04:37:14;;;;;;;19.08;2.80;;;8.10;99.90;;;7.21;100.00;95407.00;4934582;29;21016;-79
2023/03/09 04:39:40;;;;;;;19.30;3.13;;;8.10;99.90;;;7.13;100.00;95409.44;4934724;29;20430;-77
2023/03/09 04:42:06;;;;;;;18.23;3.25;;;8.10;99.90;;;7.08;100.00;95418.13;4934338;29;20423;-77
2023/03/09 04:44:39;;;;;;;19.83;3.33;;;8.00;99.90;;;7.07;100.00;95448.13;4934616;29;20416;-80
2023/03/09 04:47:06;;;;;;;15.57;3.08;;;8.00;99.90;;;7.07;100.00;95434.97;4925728;28;20496;-78
2023/03/09 04:49:32;;;;;;;16.50;3.67;;;8.00;99.90;;;7.13;100.00;95443.63;4915091;29;20469;-76
2023/03/09 04:51:58;;;;;;;13.18;3.22;;;8.10;99.90;;;7.08;100.00;95451.56;4914751;29;20413;-76
2023/03/09 04:54:24;;;;;;;19.97;3.83;;;8.10;99.90;;;7.12;100.00;95458.63;4915452;29;20414;-79
2023/03/09 04:56:50;;;;;;;19.25;4.05;;;8.00;99.90;;;7.19;100.00;95460.94;4914599;29;20429;-79
2023/03/09 04:59:16;;;;;;;22.73;3.60;;;8.10;99.90;;;7.17;100.00;95460.44;4915291;29;20417;-78
2023/03/09 05:01:43;;;;;;;20.23;3.65;;;8.20;99.90;;;7.14;100.00;95474.91;4914788;29;20974;-78
2023/03/09 05:04:09;;;;;;;20.67;4.22;;;8.10;99.90;;;7.13;100.00;95473.38;4914811;29;20492;-77
2023/03/09 05:06:35;;;;;;;16.30;3.70;;;8.10;99.90;;;7.09;100.00;95474.97;4914473;29;20413;-77
2023/03/09 05:09:03;;;;;;;17.85;3.50;;;8.00;99.90;;;7.05;100.00;95487.09;4915308;29;20460;-77
2023/03/09 05:11:29;;;;;;;22.05;3.90;;;8.00;99.90;;;7.03;100.00;95509.47;4914741;29;20417;-77
2023/03/09 05:13:55;;;;;;;16.63;3.83;;;8.00;99.90;;;6.98;100.00;95494.53;4914989;29;20515;-76
2023/03/09 05:16:21;;;;;;;18.13;3.75;;;7.90;99.90;;;6.99;100.00;95496.09;4914786;29;20425;-78
2023/03/09 05:18:50;;;;;;;20.38;3.60;;;8.00;99.90;;;7.14;100.00;95511.00;4915099;29;20414;-78
2023/03/09 05:21:17;;;;;;;17.25;3.58;;;8.00;99.90;;;7.21;100.00;95499.09;4914934;29;20476;-79
2023/03/09 05:23:43;;;;;;;22.17;3.72;;;8.10;99.90;;;7.10;100.00;95505.47;4914415;29;20500;-77
2023/03/09 05:26:09;;;;;;;15.95;3.40;;;8.10;99.90;;;7.06;100.00;95515.00;4913355;29;20476;-76
2023/03/09 05:28:36;;;;;;;23.03;4.60;;;8.00;99.90;;;6.95;100.00;95516.88;4914734;29;20412;-76
2023/03/09 05:31:06;;;;;;;18.50;4.30;;;8.00;99.90;;;6.99;100.00;95517.91;4913986;29;20409;-76
2023/03/09 05:33:32;;;;;;;21.88;3.47;;;8.00;99.90;;;6.96;100.00;95517.69;4914485;29;20500;-76
2023/03/09 05:35:59;;;;;;;19.23;3.70;;;7.90;99.90;;;7.04;100.00;95529.47;4913760;29;20508;-76
2023/03/09 05:38:25;;;;;;;15.45;3.05;;;8.00;99.90;;;7.05;100.00;95526.56;4915639;29;20488;-77
2023/03/09 05:40:51;;;;;;;17.63;3.65;;;8.00;99.90;;;7.06;100.00;95546.56;4916307;29;20428;-76
2023/03/09 05:43:17;;;;;;;18.77;4.07;;;8.00;99.90;;;7.06;100.00;95543.13;4910496;29;20462;-75
2023/03/09 05:45:43;;;;;;;22.47;3.40;;;8.00;99.90;;;7.06;100.00;95548.41;4919404;29;20413;-75
2023/03/09 05:48:09;;;;;;;22.70;3.42;;;8.00;99.90;;;7.05;100.00;95544.97;4914581;29;20421;-76
2023/03/09 05:50:37;;;;;;;28.10;4.18;;;8.00;99.90;;;6.97;100.00;95548.19;4914226;29;20485;-78
2023/03/09 05:53:04;;;;;;;14.70;3.25;;;8.00;99.90;;;7.07;100.00;95563.13;4914394;29;20421;-77
2023/03/09 05:55:30;;;;;;;17.35;3.30;;;8.00;99.90;;;7.02;100.00;95563.13;4914460;29;20506;-77
2023/03/09 05:57:56;;;;;;;20.35;3.83;;;8.00;99.90;;;7.03;100.00;95573.41;4914378;29;20447;-76
2023/03/09 06:00:23;;;;;;;18.45;3.38;;;8.00;99.90;;;7.08;100.00;95569.94;4914513;29;20492;-76
2023/03/09 06:02:49;;;;;;;24.95;3.78;;;8.00;99.90;;;6.99;100.00;95588.16;4914002;29;20440;-76
2023/03/09 06:05:15;;;;;;;18.58;3.35;;;7.90;99.90;;;6.98;100.00;95586.59;4914105;29;20421;-76
2023/03/09 06:07:41;;;;;;;22.50;3.80;;;7.90;99.90;;;7.01;100.00;95593.91;4913752;29;20468;-76
2023/03/09 06:10:11;;;;;;;19.13;3.33;;;8.00;99.90;;;6.98;100.00;95599.75;4913579;29;20413;-76
2023/03/09 06:12:37;;;;;;;24.10;4.15;;;8.00;99.90;;;6.95;100.00;95589.75;4910092;29;20422;-75
2023/03/09 06:15:04;;;;;;;19.17;3.10;;;7.90;99.90;;;6.93;100.00;95600.53;4913972;29;20413;-76
2023/03/09 06:17:30;;;;;;;18.77;3.30;;;7.90;99.90;;;6.90;100.00;95606.34;4913908;29;20458;-75
2023/03/09 06:19:56;;;;;;;20.45;3.53;;;7.90;99.90;;;6.96;100.00;95613.16;4914149;29;20421;-76
2023/03/09 06:22:22;;;;;;;20.48;3.28;;;7.90;99.90;;;6.95;100.00;95608.94;4921226;29;20414;-76
2023/03/09 06:24:48;;;;;;;23.05;3.15;;;7.90;99.90;;;6.97;100.00;95603.41;4931884;29;20498;-76
2023/03/09 06:27:15;;;;;;;20.23;3.17;;;8.00;99.90;;;6.98;100.00;95607.63;4932920;29;20459;-76
2023/03/09 06:29:41;;;;;;;26.90;3.92;;;8.00;99.90;;;6.95;100.00;95614.22;4933055;29;20423;-76
2023/03/09 06:32:07;;;;;;;17.23;3.40;;;7.90;99.90;;;6.93;100.00;95618.16;4932668;29;20498;-76
2023/03/09 06:34:33;;;;;;;23.63;3.92;;;7.90;99.90;;;6.94;100.00;95619.72;4933010;29;20415;-76
2023/03/09 06:36:59;;;;;;;26.30;3.60;;;7.90;99.90;;;6.99;100.00;95617.84;4932778;29;20458;-76
2023/03/09 06:39:25;;;;;;;21.90;3.70;;;8.00;99.90;;;6.98;100.00;95605.00;4933055;29;20779;-75
2023/03/09 06:41:57;;;;;;;30.38;4.28;;;8.00;99.90;;;7.00;100.00;95621.28;4933520;29;20438;-76
2023/03/09 06:44:24;;;;;;;21.90;3.72;;;8.00;99.90;;;7.08;100.00;95622.56;4936807;29;21013;-75
2023/03/09 06:46:50;;;;;;;20.00;3.70;;;8.00;99.90;;;7.02;100.00;95621.81;4935455;29;20514;-76
2023/03/09 06:49:16;;;;;;;20.73;3.22;;;8.00;99.90;;;7.00;100.00;95614.19;4936570;29;20408;-76
2023/03/09 06:51:42;;;;;;;21.15;3.70;;;8.00;99.90;;;6.99;100.00;95619.72;4936536;29;20437;-75
2023/03/09 06:54:08;;;;;;;21.55;4.00;;;7.90;99.90;;;6.95;100.00;95632.63;4936535;29;20426;-76
2023/03/09 06:56:34;;;;;;;22.58;3.90;;;7.90;99.90;;;6.97;100.00;95635.78;4936368;29;20419;-76
2023/03/09 06:59:00;;;;;;;15.63;3.05;;;8.00;99.90;;;7.02;100.00;95644.69;4936579;29;20420;-75
2023/03/09 07:01:27;;;;;;;17.83;2.77;;;8.00;99.90;;;7.06;100.00;95654.41;4936311;29;20770;-75
2023/03/09 07:03:53;;;;;;;17.52;3.05;;;8.00;99.90;;;7.14;100.00;95659.09;4936533;29;20447;-76
2023/03/09 07:06:19;;;;;;;17.17;3.00;;;8.10;99.90;;;7.07;100.00;95665.72;4936445;29;20849;-75
2023/03/09 07:08:45;;;;;;;14.35;3.22;;;8.00;99.90;;;7.06;100.00;95667.56;4939695;29;20422;-76
2023/03/09 07:11:11;;;;;;;25.50;3.20;;;8.00;99.90;;;7.07;100.00;95666.47;4936514;29;20422;-76
2023/03/09 07:13:36;;;;;;;14.07;3.10;;;8.00;99.90;;;7.15;100.00;95681.72;4936386;29;20556;-75
2023/03/09 07:16:03;;;;;;;11.73;2.50;;;8.10;99.90;;;7.29;100.00;95679.28;4936083;29;20768;-76
2023/03/09 07:18:31;;;;;;;15.30;2.83;;;8.20;99.90;;;7.44;100.00;95678.41;4936310;29;20408;-75
2023/03/09 07:21:00;;;;;;;20.25;3.55;;;8.40;99.90;;;7.50;100.00;95688.66;4936359;29;20751;-75
2023/03/09 07:23:26;;;;;;;15.30;3.25;;;8.50;99.90;;;7.73;100.00;95701.13;4936091;29;20415;-75
2023/03/09 07:25:52;;;;;;;19.90;3.58;;;8.60;99.90;;;7.72;100.00;95690.88;4936051;29;20423;-75
2023/03/09 07:28:18;;;;;;;16.95;3.28;;;8.60;99.90;;;7.70;100.00;95679.81;4936077;29;20411;-76
2023/03/09 07:30:44;;;;;;;14.63;2.77;;;8.60;99.90;;;7.75;100.00;95680.56;4936078;29;20999;-75
2023/03/09 07:33:10;;;;;;;23.38;3.08;;;8.60;99.90;;;7.66;100.00;95692.75;4936593;29;20494;-75
2023/03/09 07:35:39;;;;;;;17.48;3.30;;;8.60;99.90;;;7.72;100.00;95702.19;4935919;29;20822;-76
2023/03/09 07:38:05;;;;;;;14.75;3.17;;;8.60;99.90;;;7.81;100.00;95715.56;4935893;29;20914;-75
2023/03/09 07:40:31;;;;;;;14.90;2.70;;;8.70;99.90;;;7.87;100.00;95709.22;4936054;29;20511;-75
2023/03/09 07:42:57;;;;;;;16.10;2.88;;;8.80;99.90;;;8.14;100.00;95703.44;4935619;29;20439;-75
2023/03/09 07:45:23;;;;;;;12.77;2.92;;;9.10;99.90;;;8.18;100.00;95708.97;4935733;29;20932;-76
2023/03/09 07:47:49;;;;;;;8.52;2.38;;;9.10;99.90;;;8.31;100.00;95708.34;4935932;29;20412;-76
2023/03/09 07:50:15;;;;;;;8.25;2.45;;;9.20;99.90;;;8.35;100.00;95712.78;4935801;29;20415;-76
2023/03/09 07:52:43;;;;;;;12.93;3.15;;;9.30;99.90;;;8.82;100.00;95717.34;4935250;29;20415;-75
2023/03/09 07:55:12;;;;;;;12.55;2.47;;;9.50;99.90;;;8.81;100.00;95722.91;4935722;29;20450;-75
2023/03/09 07:57:38;;;;;;;10.57;2.60;;;9.60;99.90;;;9.07;100.00;95718.94;4935598;29;20809;-75
2023/03/09 08:00:11;;;;;;;10.20;2.60;;;9.80;99.90;;;9.07;100.00;95711.00;4935510;29;20498;-77
2023/03/09 08:02:37;;;;;;;11.93;2.17;;;9.90;99.90;;;9.14;100.00;95722.00;4935304;29;20490;-76
2023/03/09 08:05:07;;;;;;;14.05;2.63;;;10.00;99.90;;;9.06;100.00;95713.91;4935499;29;20495;-76
2023/03/09 08:07:33;;;;;;;9.75;2.85;;;10.00;99.90;;;9.45;100.00;95735.63;4935232;29;20412;-76
2023/03/09 08:10:00;;;;;;;12.10;2.25;;;10.20;99.90;;;9.43;100.00;95731.69;4935456;29;20508;-76
2023/03/09 08:12:26;;;;;;;9.63;2.53;;;10.20;99.90;;;9.46;100.00;95734.56;4935028;29;20454;-76
2023/03/09 08:14:52;;;;;;;9.73;1.93;;;10.30;99.90;;;9.20;100.00;95742.00;4935314;29;20506;-76
2023/03/09 08:17:18;;;;;;;9.40;2.67;;;10.10;99.90;;;9.23;100.00;95746.72;4934997;29;20522;-76
2023/03/09 08:19:44;;;;;;;8.25;1.85;;;10.20;99.90;;;9.58;100.00;95731.50;4935229;29;20414;-76
2023/03/09 08:22:10;;;;;;;8.18;2.00;;;10.30;99.90;;;9.58;100.00;95758.69;4934768;29;20407;-77
2023/03/09 08:24:36;;;;;;;8.43;1.98;;;10.40;99.90;;;9.77;100.00;95757.94;4935034;29;20773;-76
2023/03/09 08:27:04;;;;;;;10.35;2.72;;;10.60;99.90;;;9.91;100.00;95767.50;4933511;29;20909;-76
2023/03/09 08:29:30;;;;;;;9.63;2.10;;;10.70;99.90;;;9.86;100.00;95762.28;4934902;29;20411;-77
2023/03/09 08:31:55;;;;;;;10.05;2.35;;;10.70;99.90;;;9.76;100.00;95765.06;4934766;29;20421;-76
2023/03/09 08:34:21;;;;;;;11.80;2.00;;;10.70;99.90;;;10.09;100.00;95764.06;4933552;29;20960;-76
2023/03/09 08:36:47;;;;;;;8.57;1.90;;;10.80;99.90;;;9.95;100.00;95780.91;4934493;29;20525;-76
2023/03/09 08:39:13;;;;;;;7.88;1.80;;;10.90;99.90;;;9.96;100.00;95793.84;4934725;29;20419;-77
2023/03/09 08:41:39;;;;;;;8.85;1.90;;;10.80;99.90;;;10.09;100.00;95802.91;4934573;29;20917;-76
2023/03/09 08:44:07;;;;;;;8.77;1.90;;;10.90;99.90;;;9.97;100.00;95790.16;4934795;29;20416;-77
2023/03/09 08:46:33;;;;;;;10.45;1.80;;;10.80;99.90;;;10.06;100.00;95804.31;4934691;29;20404;-77
2023/03/09 08:49:00;;;;;;;6.85;2.05;;;10.80;99.90;;;10.02;100.00;95795.34;4934604;29;20462;-77
2023/03/09 08:51:28;;;;;;;9.95;2.03;;;10.90;99.90;;;10.29;100.00;95812.47;4934266;29;20419;-76
2023/03/09 08:53:55;;;;;;;7.70;2.20;;;11.10;99.90;;;10.25;100.00;95809.59;4934755;29;20419;-76
2023/03/09 08:56:21;;;;;;;13.57;2.10;;;11.10;99.90;;;10.46;100.00;95837.31;4934277;29;20510;-76
2023/03/09 08:58:47;;;;;;;6.18;1.77;;;11.20;99.90;;;10.52;100.00;95834.59;4934660;29;20411;-76
2023/03/09 09:01:15;;;;;;;9.82;1.95;;;11.30;99.90;;;10.38;100.00;95830.03;4934463;29;20415;-77
2023/03/09 09:03:41;;;;;;;6.70;1.80;;;11.30;99.90;;;10.30;100.00;95824.63;4934305;29;20414;-77
2023/03/09 09:06:09;;;;;;;6.07;2.00;;;11.10;99.90;;;10.34;100.00;95838.84;4926963;29;20471;-77
2023/03/09 09:08:36;;;;;;;11.13;2.83;;;11.20;99.90;;;10.31;100.00;95842.03;4916124;29;20501;-77
2023/03/09 09:11:06;;;;;;;10.52;2.20;;;11.20;99.90;;;10.15;100.00;95865.22;4915557;28;20894;-76
2023/03/09 09:13:32;;;;;;;6.60;2.20;;;11.00;99.90;;;9.72;100.00;95861.81;4916370;29;20456;-76
2023/03/09 09:15:59;;;;;;;9.90;2.35;;;10.70;99.90;;;9.33;100.00;95875.97;4929710;23;20801;-72
2023/03/09 09:18:27;;;;;;;7.90;1.70;;;10.30;99.90;;;8.99;100.00;95883.16;4905592;29;20421;-74
2023/03/09 09:20:53;;;;;;;5.45;1.70;;;9.90;99.90;;;8.71;100.00;95884.72;4900926;29;20451;-73
2023/03/09 09:23:18;;;;;;;7.63;2.07;;;9.60;99.90;;;8.63;100.00;95873.97;4906296;29;20431;-74
2023/03/09 09:25:44;;;;;;;10.30;2.22;;;9.50;99.90;;;8.64;100.00;95892.16;4904183;29;20421;-73
2023/03/09 09:28:10;;;;;;;7.22;1.90;;;9.50;99.90;;;8.59;100.00;95886.91;4885242;29;20991;-77
2023/03/09 09:30:37;;;;;;;10.50;2.25;;;9.50;99.90;;;8.83;100.00;95894.91;4883597;29;20480;-76
2023/03/09 09:33:04;;;;;;;8.48;2.08;;;9.70;99.90;;;8.90;100.00;95893.53;4885997;29;20497;-78
2023/03/09 09:35:32;;;;;;;9.82;2.00;;;9.80;99.90;;;8.95;100.00;95897.97;4886379;29;20413;-74
2023/03/09 09:37:59;;;;;;;9.85;3.33;;;9.80;99.90;;;9.07;100.00;95895.75;4884883;29;20424;-74
2023/03/09 09:40:25;;;;;;;8.40;2.05;;;9.90;99.90;;;9.12;100.00;95897.56;4887379;29;20419;-76
2023/03/09 09:42:53;;;;;;;8.55;2.28;;;9.90;99.90;;;9.04;100.00;95901.59;4886870;29;20423;-77
2023/03/09 09:45:30;;;;;;;11.85;2.00;;;9.90;99.90;;;8.98;100.00;95904.53;4887273;29;20418;-77
2023/03/09 09:47:59;;;;;;;7.88;1.63;;;9.90;99.90;;;9.10;100.00;95902.31;4886763;29;20490;-76
2023/03/09 09:50:40;;;;;;;8.05;2.05;;;10.00;99.90;;;9.35;100.00;95903.94;4888104;29;20415;-73
2023/03/09 09:53:16;;;;;;;5.80;1.73;;;10.10;99.90;;;9.32;100.00;95913.25;4885831;29;20511;-76
2023/03/09 09:55:43;;;;;;;5.20;1.77;;;10.20;99.90;;;9.41;100.00;95922.09;4885490;29;20412;-73
2023/03/09 09:58:29;;;;;;;7.47;2.15;;;10.20;99.90;;;9.40;100.00;95915.25;4899027;29;20411;-76
2023/03/09 10:00:59;;;;;;;7.40;2.05;;;10.20;99.90;;;9.51;100.00;95922.03;4884620;29;20408;-76
2023/03/09 10:03:30;;;;;;;6.73;1.63;;;10.30;99.90;;;9.53;100.00;95930.47;4885163;29;20407;-76
2023/03/09 10:06:05;;;;;;;4.97;1.90;;;10.40;99.90;;;9.37;100.00;95936.94;4886457;29;20430;-75
2023/03/09 10:08:38;;;;;;;6.07;1.65;;;10.20;99.90;;;9.40;100.00;95930.34;4886421;29;20432;-75
2023/03/09 10:11:15;;;;;;;5.17;1.90;;;10.20;99.90;;;9.74;100.00;95948.72;4890928;29;20436;-75
2023/03/09 10:13:47;;;;;;;5.40;1.80;;;10.40;99.90;;;9.65;100.00;95938.00;4895170;29;20474;-79
2023/03/09 10:16:19;;;;;;;6.10;1.95;;;10.40;99.90;;;9.65;100.00;95943.28;4895602;29;20434;-79
2023/03/09 10:18:51;;;;;;;3.85;1.60;;;10.40;99.90;;;9.73;100.00;95936.59;4895927;29;20399;-75
2023/03/09 10:21:25;;;;;;;9.05;2.05;;;10.60;99.90;;;9.75;100.00;95942.38;4894938;29;20426;-75